Time,TemperatureF,DewpointF,PressureIn,WindDirection,WindDirectionDegrees,WindSpeedMPH,WindSpeedGustMPH,Humidity,HourlyPrecipIn,Conditions,Clouds,dailyrainin,SoftwareType,DateUTC
2013-02-09 00:01:00,27.0,27.0,-100.00,WSW,251,21.0,30.0,100,-99.99,,,-99.99,,2013-02-09 08:01:00,
2013-02-09 00:11:00,27.0,27.0,-100.00,WSW,247,20.0,27.0,100,-99.99,,,-99.99,,2013-02-09 08:11:00,
2013-02-09 00:21:00,28.0,28.0,-100.00,WSW,255,21.0,30.0,100,-99.99,,,-99.99,,2013-02-09 08:21:00,
2013-02-09 00:31:00,27.0,27.0,-100.00,West,259,20.0,27.0,100,-99.99,,,-99.99,,2013-02-09 08:31:00,
2013-02-09 00:41:00,27.0,27.0,-100.00,WSW,244,15.0,23.0,100,-99.99,,,-99.99,,2013-02-09 08:41:00,
2013-02-09 00:52:00,27.0,27.0,-100.00,WSW,244,15.0,24.0,100,-99.99,,,-99.99,,2013-02-09 08:52:00,
2013-02-09 01:02:00,27.0,27.0,-100.00,WSW,244,14.0,26.0,100,-99.99,,,-99.99,,2013-02-09 09:02:00,
2013-02-09 01:11:00,27.0,27.0,-100.00,WSW,247,18.0,27.0,100,-99.99,,,-99.99,,2013-02-09 09:11:00,
2013-02-09 01:21:00,27.0,27.0,-100.00,WSW,246,14.0,24.0,100,-99.99,,,-99.99,,2013-02-09 09:21:00,
2013-02-09 01:31:00,27.0,27.0,-100.00,WSW,251,16.0,27.0,100,-99.99,,,-99.99,,2013-02-09 09:31:00,
2013-02-09 01:41:00,27.0,27.0,-100.00,WSW,251,15.0,23.0,100,-99.99,,,-99.99,,2013-02-09 09:41:00,
2013-02-09 01:51:00,27.0,27.0,-100.00,WSW,250,17.0,25.0,100,-99.99,,,-99.99,,2013-02-09 09:51:00,
2013-02-09 02:01:00,27.0,27.0,-100.00,WSW,249,15.0,23.0,100,-99.99,,,-99.99,,2013-02-09 10:01:00,
2013-02-09 02:11:00,27.0,27.0,-100.00,WSW,257,18.0,26.0,100,-99.99,,,-99.99,,2013-02-09 10:11:00,
2013-02-09 02:21:00,27.0,27.0,-100.00,WSW,254,20.0,28.0,100,-99.99,,,-99.99,,2013-02-09 10:21:00,
2013-02-09 02:31:00,27.0,27.0,-100.00,WSW,255,22.0,32.0,100,-99.99,,,-99.99,,2013-02-09 10:31:00,
2013-02-09 02:41:00,27.0,27.0,-100.00,WSW,251,17.0,27.0,100,-99.99,,,-99.99,,2013-02-09 10:41:00,
2013-02-09 02:51:00,27.0,27.0,-100.00,WSW,252,20.0,27.0,100,-99.99,,,-99.99,,2013-02-09 10:51:00,
2013-02-09 03:01:00,27.0,27.0,-100.00,WSW,253,19.0,27.0,100,-99.99,,,-99.99,,2013-02-09 11:01:00,
2013-02-09 03:11:00,27.0,27.0,-100.00,West,259,18.0,28.0,100,-99.99,,,-99.99,,2013-02-09 11:11:00,
2013-02-09 03:21:00,27.0,27.0,-100.00,West,262,15.0,26.0,100,-99.99,,,-99.99,,2013-02-09 11:21:00,
2013-02-09 03:31:00,27.0,27.0,-100.00,West,260,18.0,26.0,100,-99.99,,,-99.99,,2013-02-09 11:31:00,
2013-02-09 03:41:00,27.0,27.0,-100.00,West,260,21.0,28.0,100,-99.99,,,-99.99,,2013-02-09 11:41:00,
2013-02-09 03:52:00,27.0,27.0,-100.00,WSW,256,19.0,27.0,100,-99.99,,,-99.99,,2013-02-09 11:52:00,
2013-02-09 04:02:00,27.0,27.0,-100.00,WSW,256,19.0,27.0,100,-99.99,,,-99.99,,2013-02-09 12:02:00,
2013-02-09 04:11:00,27.0,27.0,-100.00,WSW,258,18.0,26.0,100,-99.99,,,-99.99,,2013-02-09 12:11:00,
2013-02-09 04:21:00,27.0,27.0,-100.00,WSW,254,17.0,25.0,100,-99.99,,,-99.99,,2013-02-09 12:21:00,
2013-02-09 04:32:00,26.0,26.0,-100.00,West,267,15.0,23.0,100,-99.99,,,-99.99,,2013-02-09 12:32:00,
2013-02-09 04:42:00,26.0,26.0,-100.00,WSW,254,11.0,19.0,100,-99.99,,,-99.99,,2013-02-09 12:42:00,
2013-02-09 04:52:00,26.0,26.0,-100.00,WSW,248,12.0,19.0,100,-99.99,,,-99.99,,2013-02-09 12:52:00,
2013-02-09 05:02:00,27.0,27.0,-100.00,WSW,247,12.0,19.0,100,-99.99,,,-99.99,,2013-02-09 13:02:00,
2013-02-09 05:11:00,27.0,27.0,-100.00,SW,234,10.0,16.0,100,-99.99,,,-99.99,,2013-02-09 13:11:00,
2013-02-09 05:21:00,27.0,27.0,-100.00,SW,236,12.0,20.0,100,-99.99,,,-99.99,,2013-02-09 13:21:00,
2013-02-09 05:31:00,27.0,27.0,-100.00,SW,229,9.0,14.0,100,-99.99,,,-99.99,,2013-02-09 13:31:00,
2013-02-09 05:42:00,27.0,27.0,-100.00,SSW,208,8.0,13.0,100,-99.99,,,-99.99,,2013-02-09 13:42:00,
2013-02-09 05:51:00,27.0,27.0,-100.00,SSW,203,8.0,14.0,100,-99.99,,,-99.99,,2013-02-09 13:51:00,
2013-02-09 06:01:00,27.0,27.0,-100.00,SSW,194,9.0,14.0,100,-99.99,,,-99.99,,2013-02-09 14:01:00,
2013-02-09 06:11:00,27.0,27.0,-100.00,South,182,8.0,13.0,100,-99.99,,,-99.99,,2013-02-09 14:11:00,
2013-02-09 06:21:00,27.0,27.0,-100.00,SSW,195,8.0,13.0,100,-99.99,,,-99.99,,2013-02-09 14:21:00,
2013-02-09 06:31:00,27.0,27.0,-100.00,SSW,203,9.0,15.0,100,-99.99,,,-99.99,,2013-02-09 14:31:00,
2013-02-09 06:41:00,27.0,27.0,-100.00,SW,231,8.0,14.0,100,-99.99,,,-99.99,,2013-02-09 14:41:00,
2013-02-09 06:52:00,27.0,27.0,-100.00,WSW,241,7.0,13.0,100,-99.99,,,-99.99,,2013-02-09 14:52:00,
2013-02-09 07:01:00,27.0,27.0,-100.00,WSW,247,6.0,14.0,100,-99.99,,,-99.99,,2013-02-09 15:01:00,
2013-02-09 07:11:00,27.0,27.0,-100.00,SSW,207,8.0,14.0,100,-99.99,,,-99.99,,2013-02-09 15:11:00,
2013-02-09 07:21:00,27.0,27.0,-100.00,SW,225,8.0,16.0,100,-99.99,,,-99.99,,2013-02-09 15:21:00,
2013-02-09 07:31:00,27.0,27.0,-100.00,SW,222,8.0,13.0,100,-99.99,,,-99.99,,2013-02-09 15:31:00,
2013-02-09 07:41:00,27.0,27.0,-100.00,South,185,10.0,15.0,100,-99.99,,,-99.99,,2013-02-09 15:41:00,
2013-02-09 07:51:00,27.0,27.0,-100.00,SW,230,6.0,14.0,100,-99.99,,,-99.99,,2013-02-09 15:51:00,
2013-02-09 08:01:00,27.0,27.0,-100.00,South,181,11.0,19.0,100,-99.99,,,-99.99,,2013-02-09 16:01:00,
2013-02-09 08:11:00,27.0,27.0,-100.00,SSW,195,9.0,15.0,100,-99.99,,,-99.99,,2013-02-09 16:11:00,
2013-02-09 08:21:00,27.0,27.0,-100.00,South,185,8.0,14.0,100,-99.99,,,-99.99,,2013-02-09 16:21:00,
2013-02-09 08:31:00,27.0,27.0,-100.00,South,184,8.0,14.0,100,-99.99,,,-99.99,,2013-02-09 16:31:00,
2013-02-09 08:41:00,27.0,27.0,-100.00,South,187,10.0,15.0,100,-99.99,,,-99.99,,2013-02-09 16:41:00,
2013-02-09 08:51:00,27.0,27.0,-100.00,South,191,9.0,15.0,100,-99.99,,,-99.99,,2013-02-09 16:51:00,
2013-02-09 09:01:00,27.0,27.0,-100.00,SW,220,7.0,13.0,100,-99.99,,,-99.99,,2013-02-09 17:01:00,
2013-02-09 09:11:00,27.0,27.0,-100.00,SSW,193,9.0,17.0,100,-99.99,,,-99.99,,2013-02-09 17:11:00,
2013-02-09 09:21:00,27.0,27.0,-100.00,SW,233,8.0,14.0,100,-99.99,,,-99.99,,2013-02-09 17:21:00,
2013-02-09 09:31:00,27.0,27.0,-100.00,WSW,247,11.0,23.0,100,-99.99,,,-99.99,,2013-02-09 17:31:00,
2013-02-09 09:41:00,27.0,27.0,-100.00,SW,233,11.0,19.0,100,-99.99,,,-99.99,,2013-02-09 17:41:00,
2013-02-09 09:52:00,27.0,27.0,-100.00,WSW,248,13.0,19.0,100,-99.99,,,-99.99,,2013-02-09 17:52:00,
2013-02-09 10:01:00,27.0,27.0,-100.00,WSW,253,9.0,18.0,100,-99.99,,,-99.99,,2013-02-09 18:01:00,
2013-02-09 10:11:00,28.0,28.0,-100.00,WSW,258,9.0,15.0,100,-99.99,,,-99.99,,2013-02-09 18:11:00,
2013-02-09 10:23:00,28.0,28.0,-100.00,WSW,241,7.0,11.0,100,-99.99,,,-99.99,,2013-02-09 18:23:00,
2013-02-09 10:31:00,28.0,28.0,-100.00,SW,218,8.0,15.0,100,-99.99,,,-99.99,,2013-02-09 18:31:00,
2013-02-09 10:41:00,29.0,29.0,-100.00,SW,229,10.0,17.0,100,-99.99,,,-99.99,,2013-02-09 18:41:00,
2013-02-09 10:51:00,29.0,29.0,-100.00,WSW,248,10.0,14.0,100,-99.99,,,-99.99,,2013-02-09 18:51:00,
2013-02-09 11:01:00,29.0,29.0,-100.00,WSW,238,10.0,16.0,100,-99.99,,,-99.99,,2013-02-09 19:01:00,
2013-02-09 11:11:00,29.0,29.0,-100.00,WSW,241,10.0,17.0,100,-99.99,,,-99.99,,2013-02-09 19:11:00,
2013-02-09 11:22:00,29.0,29.0,-100.00,SW,227,9.0,16.0,100,-99.99,,,-99.99,,2013-02-09 19:22:00,
2013-02-09 11:31:00,29.0,29.0,-100.00,WSW,250,11.0,21.0,100,-99.99,,,-99.99,,2013-02-09 19:31:00,
2013-02-09 11:41:00,29.0,29.0,-100.00,WSW,247,10.0,17.0,100,-99.99,,,-99.99,,2013-02-09 19:41:00,
2013-02-09 11:52:00,29.0,29.0,-100.00,WSW,251,10.0,17.0,100,-99.99,,,-99.99,,2013-02-09 19:52:00,
2013-02-09 12:01:00,29.0,29.0,-100.00,WSW,249,11.0,21.0,100,-99.99,,,-99.99,,2013-02-09 20:01:00,
2013-02-09 12:11:00,29.0,29.0,-100.00,WSW,241,9.0,20.0,100,-99.99,,,-99.99,,2013-02-09 20:11:00,
2013-02-09 12:21:00,30.0,30.0,-100.00,WSW,242,10.0,16.0,100,-99.99,,,-99.99,,2013-02-09 20:21:00,
2013-02-09 12:31:00,30.0,30.0,-100.00,SW,219,9.0,16.0,100,-99.99,,,-99.99,,2013-02-09 20:31:00,
2013-02-09 12:41:00,30.0,30.0,-100.00,WSW,238,10.0,18.0,99,-99.99,,,-99.99,,2013-02-09 20:41:00,
2013-02-09 12:52:00,30.0,30.0,-100.00,WSW,251,11.0,19.0,99,-99.99,,,-99.99,,2013-02-09 20:52:00,
2013-02-09 13:01:00,30.0,30.0,-100.00,WSW,258,12.0,21.0,100,-99.99,,,-99.99,,2013-02-09 21:01:00,
2013-02-09 13:11:00,30.0,30.0,-100.00,WSW,255,14.0,25.0,100,-99.99,,,-99.99,,2013-02-09 21:11:00,
2013-02-09 13:21:00,30.0,30.0,-100.00,WSW,243,11.0,21.0,100,-99.99,,,-99.99,,2013-02-09 21:21:00,
2013-02-09 13:31:00,30.0,30.0,-100.00,WSW,243,11.0,21.0,100,-99.99,,,-99.99,,2013-02-09 21:31:00,
2013-02-09 13:41:00,31.0,31.0,-100.00,West,261,14.0,24.0,99,-99.99,,,-99.99,,2013-02-09 21:41:00,
2013-02-09 13:52:00,31.0,31.0,-100.00,West,259,11.0,22.0,100,-99.99,,,-99.99,,2013-02-09 21:52:00,
2013-02-09 14:01:00,31.0,31.0,-100.00,West,259,11.0,22.0,100,-99.99,,,-99.99,,2013-02-09 22:01:00,
2013-02-09 14:11:00,31.0,31.0,-100.00,WSW,254,15.0,22.0,100,-99.99,,,-99.99,,2013-02-09 22:11:00,
2013-02-09 14:21:00,31.0,31.0,-100.00,WSW,253,15.0,22.0,100,-99.99,,,-99.99,,2013-02-09 22:21:00,
2013-02-09 14:31:00,31.0,31.0,-100.00,WSW,244,14.0,22.0,99,-99.99,,,-99.99,,2013-02-09 22:31:00,
2013-02-09 14:41:00,31.0,31.0,-100.00,WSW,246,15.0,23.0,99,-99.99,,,-99.99,,2013-02-09 22:41:00,
2013-02-09 14:51:00,31.0,31.0,-100.00,WSW,246,17.0,23.0,99,-99.99,,,-99.99,,2013-02-09 22:51:00,
2013-02-09 15:01:00,31.0,31.0,-100.00,WSW,242,16.0,22.0,99,-99.99,,,-99.99,,2013-02-09 23:01:00,
2013-02-09 15:11:00,31.0,31.0,-100.00,WSW,246,14.0,22.0,99,-99.99,,,-99.99,,2013-02-09 23:11:00,
2013-02-09 15:21:00,31.0,31.0,-100.00,WSW,251,14.0,18.0,99,-99.99,,,-99.99,,2013-02-09 23:21:00,
2013-02-09 15:31:00,31.0,31.0,-100.00,West,261,14.0,19.0,98,-99.99,,,-99.99,,2013-02-09 23:31:00,
2013-02-09 15:41:00,31.0,31.0,-100.00,WSW,247,13.0,18.0,98,-99.99,,,-99.99,,2013-02-09 23:41:00,
2013-02-09 15:52:00,32.0,32.0,-100.00,WSW,245,15.0,24.0,99,-99.99,,,-99.99,,2013-02-09 23:52:00,
2013-02-09 16:02:00,32.0,32.0,-100.00,WSW,243,13.0,20.0,99,-99.99,,,-99.99,,2013-02-10 00:02:00,
2013-02-09 16:11:00,31.0,31.0,-100.00,WSW,257,13.0,17.0,99,-99.99,,,-99.99,,2013-02-10 00:11:00,
2013-02-09 16:21:00,31.0,31.0,-100.00,WSW,245,15.0,22.0,99,-99.99,,,-99.99,,2013-02-10 00:21:00,
2013-02-09 16:31:00,32.0,32.0,-100.00,WSW,241,13.0,19.0,99,-99.99,,,-99.99,,2013-02-10 00:31:00,
2013-02-09 16:41:00,31.0,31.0,-100.00,WSW,253,12.0,18.0,99,-99.99,,,-99.99,,2013-02-10 00:41:00,
2013-02-09 16:51:00,31.0,31.0,-100.00,WSW,249,13.0,21.0,99,-99.99,,,-99.99,,2013-02-10 00:51:00,
2013-02-09 17:01:00,31.0,31.0,-100.00,WSW,245,16.0,24.0,99,-99.99,,,-99.99,,2013-02-10 01:01:00,
2013-02-09 17:11:00,31.0,31.0,-100.00,WSW,252,15.0,23.0,98,-99.99,,,-99.99,,2013-02-10 01:11:00,
2013-02-09 17:21:00,31.0,30.0,-100.00,WSW,247,15.0,22.0,97,-99.99,,,-99.99,,2013-02-10 01:21:00,
2013-02-09 17:31:00,31.0,31.0,-100.00,WSW,247,11.0,18.0,98,-99.99,,,-99.99,,2013-02-10 01:31:00,
2013-02-09 17:41:00,31.0,31.0,-100.00,WSW,247,11.0,18.0,98,-99.99,,,-99.99,,2013-02-10 01:41:00,
2013-02-09 17:51:00,31.0,31.0,-100.00,WSW,243,13.0,20.0,98,-99.99,,,-99.99,,2013-02-10 01:51:00,
2013-02-09 18:01:00,31.0,31.0,-100.00,WSW,248,14.0,22.0,99,-99.99,,,-99.99,,2013-02-10 02:01:00,
2013-02-09 18:11:00,31.0,31.0,-100.00,WSW,246,15.0,21.0,99,-99.99,,,-99.99,,2013-02-10 02:11:00,
2013-02-09 18:22:00,31.0,31.0,-100.00,WSW,247,14.0,24.0,99,-99.99,,,-99.99,,2013-02-10 02:22:00,
2013-02-09 18:31:00,31.0,31.0,-100.00,WSW,256,15.0,22.0,99,-99.99,,,-99.99,,2013-02-10 02:31:00,
2013-02-09 18:41:00,30.0,30.0,-100.00,WSW,257,15.0,24.0,99,-99.99,,,-99.99,,2013-02-10 02:41:00,
2013-02-09 18:52:00,30.0,29.0,-100.00,WSW,258,14.0,21.0,98,-99.99,,,-99.99,,2013-02-10 02:52:00,
2013-02-09 19:01:00,30.0,29.0,-100.00,WSW,255,12.0,17.0,97,-99.99,,,-99.99,,2013-02-10 03:01:00,
2013-02-09 19:11:00,30.0,29.0,-100.00,WSW,251,12.0,18.0,98,-99.99,,,-99.99,,2013-02-10 03:11:00,
2013-02-09 19:21:00,30.0,29.0,-100.00,WSW,247,11.0,21.0,97,-99.99,,,-99.99,,2013-02-10 03:21:00,
2013-02-09 19:32:00,30.0,29.0,-100.00,WSW,254,10.0,19.0,96,-99.99,,,-99.99,,2013-02-10 03:32:00,
2013-02-09 19:41:00,30.0,29.0,-100.00,WSW,254,9.0,19.0,97,-99.99,,,-99.99,,2013-02-10 03:41:00,
2013-02-09 19:51:00,30.0,29.0,-100.00,SW,226,6.0,11.0,96,-99.99,,,-99.99,,2013-02-10 03:51:00,
2013-02-09 20:01:00,30.0,29.0,-100.00,South,185,7.0,20.0,96,-99.99,,,-99.99,,2013-02-10 04:01:00,
2013-02-09 20:11:00,29.0,28.0,-100.00,SSE,155,10.0,14.0,97,-99.99,,,-99.99,,2013-02-10 04:11:00,
2013-02-09 20:21:00,29.0,28.0,-100.00,SSE,147,10.0,18.0,97,-99.99,,,-99.99,,2013-02-10 04:21:00,
2013-02-09 20:31:00,30.0,29.0,-100.00,SSE,161,8.0,15.0,96,-99.99,,,-99.99,,2013-02-10 04:31:00,
2013-02-09 20:41:00,30.0,29.0,-100.00,SSE,161,8.0,14.0,97,-99.99,,,-99.99,,2013-02-10 04:41:00,
2013-02-09 20:51:00,29.0,28.0,-100.00,SSE,148,8.0,15.0,97,-99.99,,,-99.99,,2013-02-10 04:51:00,
2013-02-09 21:01:00,29.0,28.0,-100.00,SE,140,9.0,13.0,96,-99.99,,,-99.99,,2013-02-10 05:01:00,
2013-02-09 21:11:00,29.0,28.0,-100.00,SSE,149,8.0,13.0,95,-99.99,,,-99.99,,2013-02-10 05:11:00,
2013-02-09 21:22:00,28.0,27.0,-100.00,SSE,168,4.0,8.0,95,-99.99,,,-99.99,,2013-02-10 05:22:00,
2013-02-09 21:31:00,28.0,27.0,-100.00,SSW,193,6.0,8.0,95,-99.99,,,-99.99,,2013-02-10 05:31:00,
2013-02-09 21:41:00,28.0,27.0,-100.00,SSW,198,5.0,7.0,96,-99.99,,,-99.99,,2013-02-10 05:41:00,
2013-02-09 21:52:00,27.0,26.0,-100.00,South,185,5.0,7.0,96,-99.99,,,-99.99,,2013-02-10 05:52:00,
2013-02-09 22:01:00,27.0,26.0,-100.00,SSW,192,6.0,9.0,96,-99.99,,,-99.99,,2013-02-10 06:01:00,
2013-02-09 22:11:00,28.0,27.0,-100.00,SSW,211,7.0,11.0,96,-99.99,,,-99.99,,2013-02-10 06:11:00,
2013-02-09 22:21:00,28.0,27.0,-100.00,SW,226,7.0,10.0,95,-99.99,,,-99.99,,2013-02-10 06:21:00,
2013-02-09 22:32:00,28.0,27.0,-100.00,SW,231,8.0,12.0,94,-99.99,,,-99.99,,2013-02-10 06:32:00,
2013-02-09 22:42:00,28.0,27.0,-100.00,WSW,244,9.0,14.0,94,-99.99,,,-99.99,,2013-02-10 06:42:00,
2013-02-09 22:51:00,28.0,27.0,-100.00,SW,235,6.0,11.0,96,-99.99,,,-99.99,,2013-02-10 06:51:00,
2013-02-09 23:01:00,28.0,27.0,-100.00,WSW,245,7.0,11.0,95,-99.99,,,-99.99,,2013-02-10 07:01:00,
2013-02-09 23:11:00,28.0,27.0,-100.00,WSW,241,7.0,15.0,95,-99.99,,,-99.99,,2013-02-10 07:11:00,
2013-02-09 23:21:00,28.0,27.0,-100.00,SW,235,5.0,10.0,94,-99.99,,,-99.99,,2013-02-10 07:21:00,
2013-02-09 23:31:00,29.0,28.0,-100.00,SW,234,7.0,12.0,95,-99.99,,,-99.99,,2013-02-10 07:31:00,
2013-02-09 23:41:00,28.0,28.0,-100.00,SW,235,7.0,11.0,98,-99.99,,,-99.99,,2013-02-10 07:41:00,
2013-02-09 23:51:00,29.0,29.0,-100.00,SW,232,8.0,13.0,98,-99.99,,,-99.99,,2013-02-10 07:51:00,